sensor_id;sensor_type;location;lat;lon;timestamp;P1;durP1;ratioP1;P2;durP2;ratioP2
63784;SDS011;49927;48.146;11.420;2023-05-16T00:00:46;218.65;;;194.00;;
63784;SDS011;49927;48.146;11.420;2023-05-16T00:03:12;212.32;;;189.70;;
63784;SDS011;49927;48.146;11.420;2023-05-16T00:05:41;342.98;;;214.10;;
63784;SDS011;49927;48.146;11.420;2023-05-16T00:08:07;223.40;;;184.63;;
63784;SDS011;49927;48.146;11.420;2023-05-16T00:10:34;190.40;;;169.82;;
63784;SDS011;49927;48.146;11.420;2023-05-16T00:13:01;497.75;;;243.85;;
63784;SDS011;49927;48.146;11.420;2023-05-16T00:15:27;719.15;;;346.80;;
63784;SDS011;49927;48.146;11.420;2023-05-16T00:17:54;278.33;;;251.98;;
63784;SDS011;49927;48.146;11.420;2023-05-16T00:20:21;265.55;;;239.27;;
63784;SDS011;49927;48.146;11.420;2023-05-16T00:22:50;259.17;;;232.98;;
63784;SDS011;49927;48.146;11.420;2023-05-16T00:25:16;256.20;;;232.05;;
63784;SDS011;49927;48.146;11.420;2023-05-16T00:27:43;257.08;;;229.52;;
63784;SDS011;49927;48.146;11.420;2023-05-16T00:30:10;246.32;;;220.48;;
63784;SDS011;49927;48.146;11.420;2023-05-16T00:32:37;240.20;;;214.43;;
63784;SDS011;49927;48.146;11.420;2023-05-16T00:35:05;250.88;;;224.73;;
63784;SDS011;49927;48.146;11.420;2023-05-16T00:37:32;250.88;;;224.48;;
63784;SDS011;49927;48.146;11.420;2023-05-16T00:40:00;256.83;;;229.82;;
63784;SDS011;49927;48.146;11.420;2023-05-16T00:42:27;230.05;;;205.50;;
63784;SDS011;49927;48.146;11.420;2023-05-16T00:44:53;253.43;;;229.93;;
63784;SDS011;49927;48.146;11.420;2023-05-16T00:47:20;264.73;;;239.07;;
63784;SDS011;49927;48.146;11.420;2023-05-16T00:49:47;255.48;;;231.85;;
63784;SDS011;49927;48.146;11.420;2023-05-16T00:52:14;252.98;;;232.38;;
63784;SDS011;49927;48.146;11.420;2023-05-16T00:54:41;255.80;;;234.13;;
63784;SDS011;49927;48.146;11.420;2023-05-16T00:57:09;283.33;;;255.23;;
63784;SDS011;49927;48.146;11.420;2023-05-16T00:59:36;272.63;;;245.35;;
63784;SDS011;49927;48.146;11.420;2023-05-16T01:02:02;275.52;;;249.35;;
63784;SDS011;49927;48.146;11.420;2023-05-16T01:04:29;266.00;;;238.82;;
63784;SDS011;49927;48.146;11.420;2023-05-16T01:06:57;225.57;;;200.10;;
63784;SDS011;49927;48.146;11.420;2023-05-16T01:09:23;253.63;;;228.20;;
63784;SDS011;49927;48.146;11.420;2023-05-16T01:11:51;241.80;;;218.27;;
63784;SDS011;49927;48.146;11.420;2023-05-16T01:14:21;248.25;;;224.75;;
63784;SDS011;49927;48.146;11.420;2023-05-16T01:16:53;252.20;;;228.38;;
63784;SDS011;49927;48.146;11.420;2023-05-16T01:19:29;265.50;;;239.00;;
63784;SDS011;49927;48.146;11.420;2023-05-16T01:22:05;271.58;;;244.95;;
63784;SDS011;49927;48.146;11.420;2023-05-16T01:24:38;284.73;;;256.42;;
63784;SDS011;49927;48.146;11.420;2023-05-16T01:27:11;275.65;;;248.10;;
63784;SDS011;49927;48.146;11.420;2023-05-16T01:29:38;278.77;;;251.63;;
63784;SDS011;49927;48.146;11.420;2023-05-16T01:32:05;277.52;;;250.90;;
63784;SDS011;49927;48.146;11.420;2023-05-16T01:34:32;288.20;;;261.30;;
63784;SDS011;49927;48.146;11.420;2023-05-16T01:37:01;255.88;;;234.85;;
63784;SDS011;49927;48.146;11.420;2023-05-16T01:39:35;280.60;;;253.65;;
63784;SDS011;49927;48.146;11.420;2023-05-16T01:42:04;251.90;;;229.35;;
63784;SDS011;49927;48.146;11.420;2023-05-16T01:44:35;597.20;;;358.25;;
63784;SDS011;49927;48.146;11.420;2023-05-16T01:47:06;729.97;;;358.55;;
63784;SDS011;49927;48.146;11.420;2023-05-16T01:49:42;263.38;;;239.98;;
63784;SDS011;49927;48.146;11.420;2023-05-16T01:52:15;267.60;;;244.82;;
63784;SDS011;49927;48.146;11.420;2023-05-16T01:54:46;295.38;;;266.52;;
63784;SDS011;49927;48.146;11.420;2023-05-16T01:57:13;451.75;;;297.75;;
63784;SDS011;49927;48.146;11.420;2023-05-16T01:59:43;283.40;;;255.85;;
63784;SDS011;49927;48.146;11.420;2023-05-16T02:02:10;291.63;;;263.70;;
63784;SDS011;49927;48.146;11.420;2023-05-16T02:04:37;280.85;;;254.98;;
63784;SDS011;49927;48.146;11.420;2023-05-16T02:07:04;278.88;;;254.60;;
63784;SDS011;49927;48.146;11.420;2023-05-16T02:09:30;260.20;;;234.88;;
63784;SDS011;49927;48.146;11.420;2023-05-16T02:11:57;688.70;;;450.63;;
63784;SDS011;49927;48.146;11.420;2023-05-16T02:14:24;1011.33;;;708.55;;
63784;SDS011;49927;48.146;11.420;2023-05-16T02:16:52;1053.25;;;756.13;;
63784;SDS011;49927;48.146;11.420;2023-05-16T02:19:18;995.42;;;720.33;;
63784;SDS011;49927;48.146;11.420;2023-05-16T02:21:45;972.83;;;677.05;;
63784;SDS011;49927;48.146;11.420;2023-05-16T02:24:12;858.75;;;494.17;;
63784;SDS011;49927;48.146;11.420;2023-05-16T02:26:39;908.42;;;564.95;;
63784;SDS011;49927;48.146;11.420;2023-05-16T02:29:05;816.42;;;459.25;;
63784;SDS011;49927;48.146;11.420;2023-05-16T02:31:32;768.30;;;402.67;;
63784;SDS011;49927;48.146;11.420;2023-05-16T02:34:00;733.65;;;356.33;;
63784;SDS011;49927;48.146;11.420;2023-05-16T02:36:27;282.77;;;224.43;;
63784;SDS011;49927;48.146;11.420;2023-05-16T02:38:54;522.90;;;257.13;;
63784;SDS011;49927;48.146;11.420;2023-05-16T02:41:21;680.47;;;305.98;;
63784;SDS011;49927;48.146;11.420;2023-05-16T02:43:48;537.65;;;268.52;;
63784;SDS011;49927;48.146;11.420;2023-05-16T02:46:21;256.55;;;229.35;;
63784;SDS011;49927;48.146;11.420;2023-05-16T02:48:49;252.20;;;221.88;;
63784;SDS011;49927;48.146;11.420;2023-05-16T02:51:19;268.05;;;225.48;;
63784;SDS011;49927;48.146;11.420;2023-05-16T02:53:46;260.45;;;228.60;;
63784;SDS011;49927;48.146;11.420;2023-05-16T02:56:12;262.48;;;228.20;;
63784;SDS011;49927;48.146;11.420;2023-05-16T02:58:39;253.60;;;226.30;;
63784;SDS011;49927;48.146;11.420;2023-05-16T03:01:06;256.40;;;224.85;;
63784;SDS011;49927;48.146;11.420;2023-05-16T03:03:33;252.30;;;224.60;;
63784;SDS011;49927;48.146;11.420;2023-05-16T03:06:00;259.17;;;231.13;;
63784;SDS011;49927;48.146;11.420;2023-05-16T03:08:28;268.23;;;241.25;;
63784;SDS011;49927;48.146;11.420;2023-05-16T03:10:55;260.58;;;234.70;;
63784;SDS011;49927;48.146;11.420;2023-05-16T03:13:21;270.42;;;243.50;;
63784;SDS011;49927;48.146;11.420;2023-05-16T03:15:48;263.45;;;237.10;;
63784;SDS011;49927;48.146;11.420;2023-05-16T03:18:15;257.45;;;230.60;;
63784;SDS011;49927;48.146;11.420;2023-05-16T03:20:42;270.17;;;243.48;;
63784;SDS011;49927;48.146;11.420;2023-05-16T03:23:08;270.15;;;242.45;;
63784;SDS011;49927;48.146;11.420;2023-05-16T03:25:37;265.85;;;239.82;;
63784;SDS011;49927;48.146;11.420;2023-05-16T03:28:04;269.95;;;242.27;;
63784;SDS011;49927;48.146;11.420;2023-05-16T03:30:31;262.90;;;234.23;;
63784;SDS011;49927;48.146;11.420;2023-05-16T03:32:58;267.67;;;235.13;;
63784;SDS011;49927;48.146;11.420;2023-05-16T03:35:24;268.02;;;237.95;;
63784;SDS011;49927;48.146;11.420;2023-05-16T03:37:52;273.77;;;245.75;;
63784;SDS011;49927;48.146;11.420;2023-05-16T03:40:18;276.08;;;246.10;;
63784;SDS011;49927;48.146;11.420;2023-05-16T03:42:47;288.88;;;260.50;;
63784;SDS011;49927;48.146;11.420;2023-05-16T03:45:14;813.22;;;448.08;;
63784;SDS011;49927;48.146;11.420;2023-05-16T03:47:41;758.30;;;387.48;;
63784;SDS011;49927;48.146;11.420;2023-05-16T03:50:08;745.60;;;387.17;;
63784;SDS011;49927;48.146;11.420;2023-05-16T03:52:35;700.17;;;326.08;;
63784;SDS011;49927;48.146;11.420;2023-05-16T03:55:01;738.55;;;362.00;;
63784;SDS011;49927;48.146;11.420;2023-05-16T03:57:29;742.10;;;373.52;;
63784;SDS011;49927;48.146;11.420;2023-05-16T03:59:58;281.20;;;252.50;;
63784;SDS011;49927;48.146;11.420;2023-05-16T04:02:25;286.40;;;256.75;;
63784;SDS011;49927;48.146;11.420;2023-05-16T04:04:51;558.92;;;400.02;;
63784;SDS011;49927;48.146;11.420;2023-05-16T04:07:18;813.25;;;448.65;;
63784;SDS011;49927;48.146;11.420;2023-05-16T04:09:48;786.92;;;430.02;;
63784;SDS011;49927;48.146;11.420;2023-05-16T04:12:15;796.17;;;430.40;;
63784;SDS011;49927;48.146;11.420;2023-05-16T04:14:41;791.95;;;432.00;;
63784;SDS011;49927;48.146;11.420;2023-05-16T04:17:09;783.30;;;422.13;;
63784;SDS011;49927;48.146;11.420;2023-05-16T04:19:36;796.33;;;432.92;;
63784;SDS011;49927;48.146;11.420;2023-05-16T04:22:03;781.47;;;411.15;;
63784;SDS011;49927;48.146;11.420;2023-05-16T04:24:30;780.97;;;414.85;;
63784;SDS011;49927;48.146;11.420;2023-05-16T04:26:57;306.85;;;274.83;;
63784;SDS011;49927;48.146;11.420;2023-05-16T04:29:23;296.52;;;265.83;;
63784;SDS011;49927;48.146;11.420;2023-05-16T04:31:50;294.17;;;260.92;;
63784;SDS011;49927;48.146;11.420;2023-05-16T04:34:18;295.83;;;263.88;;
63784;SDS011;49927;48.146;11.420;2023-05-16T04:36:45;293.17;;;261.33;;
63784;SDS011;49927;48.146;11.420;2023-05-16T04:39:11;281.23;;;250.68;;
63784;SDS011;49927;48.146;11.420;2023-05-16T04:41:38;273.10;;;247.40;;
63784;SDS011;49927;48.146;11.420;2023-05-16T04:44:05;274.85;;;248.85;;
63784;SDS011;49927;48.146;11.420;2023-05-16T04:46:32;590.40;;;342.90;;
63784;SDS011;49927;48.146;11.420;2023-05-16T04:48:58;758.13;;;393.02;;
63784;SDS011;49927;48.146;11.420;2023-05-16T04:51:26;800.08;;;430.60;;
63784;SDS011;49927;48.146;11.420;2023-05-16T04:53:53;764.08;;;395.00;;
63784;SDS011;49927;48.146;11.420;2023-05-16T04:56:20;231.25;;;213.60;;
63784;SDS011;49927;48.146;11.420;2023-05-16T04:58:47;245.75;;;223.95;;
63784;SDS011;49927;48.146;11.420;2023-05-16T05:01:13;561.67;;;322.23;;
63784;SDS011;49927;48.146;11.420;2023-05-16T05:03:40;710.72;;;329.08;;
63784;SDS011;49927;48.146;11.420;2023-05-16T05:06:07;705.72;;;331.90;;
63784;SDS011;49927;48.146;11.420;2023-05-16T05:08:35;711.38;;;351.70;;
63784;SDS011;49927;48.146;11.420;2023-05-16T05:11:02;242.88;;;220.52;;
63784;SDS011;49927;48.146;11.420;2023-05-16T05:13:28;241.93;;;217.90;;
63784;SDS011;49927;48.146;11.420;2023-05-16T05:15:55;241.98;;;219.80;;
63784;SDS011;49927;48.146;11.420;2023-05-16T05:18:22;234.70;;;209.63;;
63784;SDS011;49927;48.146;11.420;2023-05-16T05:20:48;237.40;;;212.88;;
63784;SDS011;49927;48.146;11.420;2023-05-16T05:23:15;251.63;;;225.75;;
63784;SDS011;49927;48.146;11.420;2023-05-16T05:25:43;238.88;;;215.23;;
63784;SDS011;49927;48.146;11.420;2023-05-16T05:28:10;242.75;;;218.38;;
63784;SDS011;49927;48.146;11.420;2023-05-16T05:30:36;239.45;;;213.02;;
63784;SDS011;49927;48.146;11.420;2023-05-16T05:33:05;237.23;;;213.70;;
63784;SDS011;49927;48.146;11.420;2023-05-16T05:35:32;229.45;;;204.15;;
63784;SDS011;49927;48.146;11.420;2023-05-16T05:37:59;232.82;;;205.57;;
63784;SDS011;49927;48.146;11.420;2023-05-16T05:40:25;249.60;;;219.00;;
63784;SDS011;49927;48.146;11.420;2023-05-16T05:42:53;248.93;;;217.77;;
63784;SDS011;49927;48.146;11.420;2023-05-16T05:45:20;239.18;;;213.40;;
63784;SDS011;49927;48.146;11.420;2023-05-16T05:47:47;253.18;;;221.25;;
63784;SDS011;49927;48.146;11.420;2023-05-16T05:50:14;256.10;;;215.13;;
63784;SDS011;49927;48.146;11.420;2023-05-16T05:52:40;247.38;;;211.02;;
63784;SDS011;49927;48.146;11.420;2023-05-16T05:55:07;246.30;;;205.93;;
63784;SDS011;49927;48.146;11.420;2023-05-16T05:57:34;247.32;;;208.93;;
63784;SDS011;49927;48.146;11.420;2023-05-16T06:00:03;251.85;;;213.38;;
63784;SDS011;49927;48.146;11.420;2023-05-16T06:02:30;233.05;;;206.77;;
63784;SDS011;49927;48.146;11.420;2023-05-16T06:04:57;258.70;;;215.10;;
63784;SDS011;49927;48.146;11.420;2023-05-16T06:07:24;266.95;;;224.63;;
63784;SDS011;49927;48.146;11.420;2023-05-16T06:09:50;268.30;;;224.63;;
63784;SDS011;49927;48.146;11.420;2023-05-16T06:12:17;339.50;;;222.45;;
63784;SDS011;49927;48.146;11.420;2023-05-16T06:14:44;429.88;;;252.50;;
63784;SDS011;49927;48.146;11.420;2023-05-16T06:17:12;463.73;;;233.48;;
63784;SDS011;49927;48.146;11.420;2023-05-16T06:19:39;281.15;;;233.43;;
63784;SDS011;49927;48.146;11.420;2023-05-16T06:22:05;282.58;;;236.30;;
63784;SDS011;49927;48.146;11.420;2023-05-16T06:24:32;288.27;;;242.43;;
63784;SDS011;49927;48.146;11.420;2023-05-16T06:26:59;321.02;;;239.23;;
63784;SDS011;49927;48.146;11.420;2023-05-16T06:29:25;286.77;;;241.05;;
63784;SDS011;49927;48.146;11.420;2023-05-16T06:31:52;291.10;;;239.77;;
63784;SDS011;49927;48.146;11.420;2023-05-16T06:34:20;281.38;;;230.20;;
63784;SDS011;49927;48.146;11.420;2023-05-16T06:36:47;289.27;;;234.40;;
63784;SDS011;49927;48.146;11.420;2023-05-16T06:39:14;283.90;;;233.00;;
63784;SDS011;49927;48.146;11.420;2023-05-16T06:41:40;286.08;;;236.45;;
63784;SDS011;49927;48.146;11.420;2023-05-16T06:44:07;282.73;;;229.40;;
63784;SDS011;49927;48.146;11.420;2023-05-16T06:46:34;291.88;;;242.35;;
63784;SDS011;49927;48.146;11.420;2023-05-16T06:49:01;281.95;;;224.50;;
63784;SDS011;49927;48.146;11.420;2023-05-16T06:51:29;276.73;;;229.73;;
63784;SDS011;49927;48.146;11.420;2023-05-16T06:53:56;284.90;;;216.63;;
63784;SDS011;49927;48.146;11.420;2023-05-16T06:56:22;285.88;;;242.93;;
63784;SDS011;49927;48.146;11.420;2023-05-16T06:58:49;284.67;;;239.13;;
63784;SDS011;49927;48.146;11.420;2023-05-16T07:01:16;434.50;;;291.50;;
63784;SDS011;49927;48.146;11.420;2023-05-16T07:03:42;317.05;;;271.75;;
63784;SDS011;49927;48.146;11.420;2023-05-16T07:06:10;316.88;;;263.98;;
63784;SDS011;49927;48.146;11.420;2023-05-16T07:08:38;302.15;;;256.02;;
63784;SDS011;49927;48.146;11.420;2023-05-16T07:11:05;282.42;;;254.45;;
63784;SDS011;49927;48.146;11.420;2023-05-16T07:13:31;296.52;;;267.08;;
63784;SDS011;49927;48.146;11.420;2023-05-16T07:16:01;300.25;;;270.15;;
63784;SDS011;49927;48.146;11.420;2023-05-16T07:18:28;284.02;;;254.63;;
63784;SDS011;49927;48.146;11.420;2023-05-16T07:20:54;471.27;;;290.23;;
63784;SDS011;49927;48.146;11.420;2023-05-16T07:23:21;288.52;;;258.92;;
63784;SDS011;49927;48.146;11.420;2023-05-16T07:25:49;455.00;;;303.67;;
63784;SDS011;49927;48.146;11.420;2023-05-16T07:28:16;765.60;;;401.17;;
63784;SDS011;49927;48.146;11.420;2023-05-16T07:30:43;303.67;;;260.60;;
63784;SDS011;49927;48.146;11.420;2023-05-16T07:33:09;303.67;;;263.90;;
63784;SDS011;49927;48.146;11.420;2023-05-16T07:35:36;457.98;;;210.90;;
63784;SDS011;49927;48.146;11.420;2023-05-16T07:38:03;536.80;;;249.48;;
63784;SDS011;49927;48.146;11.420;2023-05-16T07:40:30;303.50;;;253.23;;
63784;SDS011;49927;48.146;11.420;2023-05-16T07:42:58;292.77;;;248.43;;
63784;SDS011;49927;48.146;11.420;2023-05-16T07:45:25;412.95;;;227.70;;
63784;SDS011;49927;48.146;11.420;2023-05-16T07:47:52;451.63;;;215.75;;
63784;SDS011;49927;48.146;11.420;2023-05-16T07:50:19;357.73;;;245.07;;
63784;SDS011;49927;48.146;11.420;2023-05-16T07:52:45;367.83;;;227.13;;
63784;SDS011;49927;48.146;11.420;2023-05-16T07:55:12;440.27;;;231.68;;
63784;SDS011;49927;48.146;11.420;2023-05-16T07:57:39;359.73;;;237.95;;
63784;SDS011;49927;48.146;11.420;2023-05-16T08:00:08;297.42;;;217.00;;
63784;SDS011;49927;48.146;11.420;2023-05-16T08:02:35;285.05;;;229.50;;
63784;SDS011;49927;48.146;11.420;2023-05-16T08:05:03;381.90;;;238.18;;
63784;SDS011;49927;48.146;11.420;2023-05-16T08:07:30;455.58;;;282.83;;
63784;SDS011;49927;48.146;11.420;2023-05-16T08:09:57;463.45;;;283.92;;
63784;SDS011;49927;48.146;11.420;2023-05-16T08:12:24;454.55;;;275.52;;
63784;SDS011;49927;48.146;11.420;2023-05-16T08:14:50;441.40;;;266.40;;
63784;SDS011;49927;48.146;11.420;2023-05-16T08:17:19;448.52;;;279.27;;
63784;SDS011;49927;48.146;11.420;2023-05-16T08:19:45;461.00;;;277.52;;
63784;SDS011;49927;48.146;11.420;2023-05-16T08:22:12;444.92;;;267.70;;
63784;SDS011;49927;48.146;11.420;2023-05-16T08:24:39;448.42;;;283.00;;
63784;SDS011;49927;48.146;11.420;2023-05-16T08:27:06;448.80;;;280.27;;
63784;SDS011;49927;48.146;11.420;2023-05-16T08:29:33;428.83;;;273.40;;
63784;SDS011;49927;48.146;11.420;2023-05-16T08:31:59;389.77;;;260.77;;
63784;SDS011;49927;48.146;11.420;2023-05-16T08:34:29;419.85;;;269.80;;
63784;SDS011;49927;48.146;11.420;2023-05-16T08:36:56;415.90;;;256.35;;
63784;SDS011;49927;48.146;11.420;2023-05-16T08:39:22;394.92;;;258.98;;
63784;SDS011;49927;48.146;11.420;2023-05-16T08:41:49;415.27;;;269.33;;
63784;SDS011;49927;48.146;11.420;2023-05-16T08:44:16;417.80;;;267.85;;
63784;SDS011;49927;48.146;11.420;2023-05-16T08:46:42;390.83;;;259.80;;
63784;SDS011;49927;48.146;11.420;2023-05-16T08:49:11;380.67;;;254.77;;
63784;SDS011;49927;48.146;11.420;2023-05-16T08:51:39;403.45;;;258.75;;
63784;SDS011;49927;48.146;11.420;2023-05-16T08:54:07;406.52;;;264.10;;
63784;SDS011;49927;48.146;11.420;2023-05-16T08:56:37;403.92;;;263.70;;
63784;SDS011;49927;48.146;11.420;2023-05-16T08:59:04;393.70;;;260.77;;
63784;SDS011;49927;48.146;11.420;2023-05-16T09:01:31;404.30;;;265.00;;
63784;SDS011;49927;48.146;11.420;2023-05-16T09:03:58;446.75;;;288.00;;
63784;SDS011;49927;48.146;11.420;2023-05-16T09:06:25;424.58;;;275.90;;
63784;SDS011;49927;48.146;11.420;2023-05-16T09:08:53;425.33;;;277.70;;
63784;SDS011;49927;48.146;11.420;2023-05-16T09:11:20;433.52;;;278.13;;
63784;SDS011;49927;48.146;11.420;2023-05-16T09:13:47;392.48;;;263.77;;
63784;SDS011;49927;48.146;11.420;2023-05-16T09:16:14;420.80;;;270.65;;
63784;SDS011;49927;48.146;11.420;2023-05-16T09:18:42;444.73;;;281.52;;
63784;SDS011;49927;48.146;11.420;2023-05-16T09:21:10;439.50;;;275.05;;
63784;SDS011;49927;48.146;11.420;2023-05-16T09:23:39;428.30;;;270.73;;
63784;SDS011;49927;48.146;11.420;2023-05-16T09:26:09;418.85;;;268.38;;
63784;SDS011;49927;48.146;11.420;2023-05-16T09:28:36;391.95;;;256.50;;
63784;SDS011;49927;48.146;11.420;2023-05-16T09:31:03;328.88;;;227.30;;
63784;SDS011;49927;48.146;11.420;2023-05-16T09:33:31;329.17;;;222.75;;
63784;SDS011;49927;48.146;11.420;2023-05-16T09:35:58;370.90;;;247.05;;
63784;SDS011;49927;48.146;11.420;2023-05-16T09:38:25;414.33;;;258.65;;
63784;SDS011;49927;48.146;11.420;2023-05-16T09:40:53;400.40;;;258.98;;
63784;SDS011;49927;48.146;11.420;2023-05-16T09:43:23;364.08;;;246.65;;
63784;SDS011;49927;48.146;11.420;2023-05-16T09:45:51;373.80;;;249.63;;
63784;SDS011;49927;48.146;11.420;2023-05-16T09:48:19;347.42;;;240.45;;
63784;SDS011;49927;48.146;11.420;2023-05-16T09:50:47;321.60;;;218.32;;
63784;SDS011;49927;48.146;11.420;2023-05-16T09:53:15;279.30;;;182.80;;
63784;SDS011;49927;48.146;11.420;2023-05-16T09:55:42;322.38;;;222.80;;
63784;SDS011;49927;48.146;11.420;2023-05-16T09:58:08;301.38;;;204.68;;
63784;SDS011;49927;48.146;11.420;2023-05-16T10:00:37;287.10;;;190.70;;
63784;SDS011;49927;48.146;11.420;2023-05-16T10:03:04;312.00;;;218.57;;
63784;SDS011;49927;48.146;11.420;2023-05-16T10:05:32;336.13;;;233.30;;
63784;SDS011;49927;48.146;11.420;2023-05-16T10:07:59;347.80;;;243.07;;
63784;SDS011;49927;48.146;11.420;2023-05-16T10:10:27;362.42;;;240.82;;
63784;SDS011;49927;48.146;11.420;2023-05-16T10:12:55;336.35;;;233.45;;
63784;SDS011;49927;48.146;11.420;2023-05-16T10:15:25;327.05;;;226.35;;
63784;SDS011;49927;48.146;11.420;2023-05-16T10:17:54;323.30;;;223.98;;
63784;SDS011;49927;48.146;11.420;2023-05-16T10:20:22;364.00;;;242.88;;
63784;SDS011;49927;48.146;11.420;2023-05-16T10:22:49;430.67;;;268.15;;
63784;SDS011;49927;48.146;11.420;2023-05-16T10:25:19;437.23;;;275.40;;
63784;SDS011;49927;48.146;11.420;2023-05-16T10:27:49;424.15;;;266.15;;
63784;SDS011;49927;48.146;11.420;2023-05-16T10:30:16;423.92;;;232.73;;
63784;SDS011;49927;48.146;11.420;2023-05-16T10:32:44;243.30;;;211.93;;
63784;SDS011;49927;48.146;11.420;2023-05-16T10:35:13;269.25;;;213.07;;
63784;SDS011;49927;48.146;11.420;2023-05-16T10:37:40;236.48;;;192.98;;
63784;SDS011;49927;48.146;11.420;2023-05-16T10:40:07;347.70;;;221.52;;
63784;SDS011;49927;48.146;11.420;2023-05-16T10:42:35;409.05;;;243.70;;
63784;SDS011;49927;48.146;11.420;2023-05-16T10:45:08;348.23;;;198.63;;
63784;SDS011;49927;48.146;11.420;2023-05-16T10:47:35;408.77;;;246.48;;
63784;SDS011;49927;48.146;11.420;2023-05-16T10:50:01;324.70;;;212.52;;
63784;SDS011;49927;48.146;11.420;2023-05-16T10:52:32;420.45;;;246.10;;
63784;SDS011;49927;48.146;11.420;2023-05-16T10:55:01;407.63;;;247.20;;
63784;SDS011;49927;48.146;11.420;2023-05-16T10:57:28;242.98;;;202.45;;
63784;SDS011;49927;48.146;11.420;2023-05-16T10:59:58;318.77;;;208.98;;
63784;SDS011;49927;48.146;11.420;2023-05-16T11:02:25;384.52;;;237.57;;
63784;SDS011;49927;48.146;11.420;2023-05-16T11:04:54;382.73;;;235.57;;
63784;SDS011;49927;48.146;11.420;2023-05-16T11:07:22;259.08;;;222.10;;
63784;SDS011;49927;48.146;11.420;2023-05-16T11:10:00;260.08;;;220.00;;
63784;SDS011;49927;48.146;11.420;2023-05-16T11:12:35;371.17;;;225.20;;
63784;SDS011;49927;48.146;11.420;2023-05-16T11:15:22;228.30;;;205.23;;
63784;SDS011;49927;48.146;11.420;2023-05-16T11:17:50;477.65;;;223.40;;
63784;SDS011;49927;48.146;11.420;2023-05-16T11:20:24;217.98;;;193.95;;
63784;SDS011;49927;48.146;11.420;2023-05-16T11:22:51;334.70;;;191.32;;
63784;SDS011;49927;48.146;11.420;2023-05-16T11:25:50;341.25;;;205.55;;
63784;SDS011;49927;48.146;11.420;2023-05-16T11:28:19;265.55;;;181.98;;
63784;SDS011;49927;48.146;11.420;2023-05-16T11:30:46;222.50;;;195.05;;
63784;SDS011;49927;48.146;11.420;2023-05-16T11:33:14;474.27;;;208.45;;
63784;SDS011;49927;48.146;11.420;2023-05-16T11:35:40;402.42;;;202.20;;
63784;SDS011;49927;48.146;11.420;2023-05-16T11:38:11;345.38;;;215.40;;
63784;SDS011;49927;48.146;11.420;2023-05-16T11:40:42;369.05;;;223.90;;
63784;SDS011;49927;48.146;11.420;2023-05-16T11:43:09;411.60;;;240.50;;
63784;SDS011;49927;48.146;11.420;2023-05-16T11:45:35;331.17;;;222.00;;
63784;SDS011;49927;48.146;11.420;2023-05-16T11:48:02;410.63;;;254.23;;
63784;SDS011;49927;48.146;11.420;2023-05-16T11:50:29;355.25;;;240.35;;
63784;SDS011;49927;48.146;11.420;2023-05-16T11:52:56;319.55;;;213.80;;
63784;SDS011;49927;48.146;11.420;2023-05-16T11:55:24;347.88;;;212.30;;
63784;SDS011;49927;48.146;11.420;2023-05-16T11:58:08;260.45;;;232.80;;
63784;SDS011;49927;48.146;11.420;2023-05-16T12:00:35;245.10;;;219.23;;
63784;SDS011;49927;48.146;11.420;2023-05-16T12:03:02;246.50;;;220.85;;
63784;SDS011;49927;48.146;11.420;2023-05-16T12:05:31;233.88;;;208.48;;
63784;SDS011;49927;48.146;11.420;2023-05-16T12:08:00;234.15;;;208.77;;
63784;SDS011;49927;48.146;11.420;2023-05-16T12:10:26;250.55;;;223.55;;
63784;SDS011;49927;48.146;11.420;2023-05-16T12:12:54;252.15;;;225.73;;
63784;SDS011;49927;48.146;11.420;2023-05-16T12:15:23;283.27;;;252.65;;
63784;SDS011;49927;48.146;11.420;2023-05-16T12:17:49;262.85;;;235.38;;
63784;SDS011;49927;48.146;11.420;2023-05-16T12:20:16;249.50;;;224.30;;
63784;SDS011;49927;48.146;11.420;2023-05-16T12:22:44;268.08;;;239.18;;
63784;SDS011;49927;48.146;11.420;2023-05-16T12:25:19;285.08;;;254.93;;
63784;SDS011;49927;48.146;11.420;2023-05-16T12:27:47;247.73;;;220.90;;
63784;SDS011;49927;48.146;11.420;2023-05-16T12:30:15;261.75;;;234.52;;
63784;SDS011;49927;48.146;11.420;2023-05-16T12:32:43;261.13;;;234.93;;
63784;SDS011;49927;48.146;11.420;2023-05-16T12:35:10;267.30;;;241.10;;
63784;SDS011;49927;48.146;11.420;2023-05-16T12:37:37;260.02;;;234.45;;
63784;SDS011;49927;48.146;11.420;2023-05-16T12:40:05;261.65;;;235.07;;
63784;SDS011;49927;48.146;11.420;2023-05-16T12:42:32;302.20;;;270.63;;
63784;SDS011;49927;48.146;11.420;2023-05-16T12:44:59;272.05;;;243.77;;
63784;SDS011;49927;48.146;11.420;2023-05-16T12:47:33;276.92;;;246.98;;
63784;SDS011;49927;48.146;11.420;2023-05-16T12:50:02;295.98;;;264.85;;
63784;SDS011;49927;48.146;11.420;2023-05-16T12:52:35;281.55;;;251.68;;
63784;SDS011;49927;48.146;11.420;2023-05-16T12:55:01;301.65;;;257.17;;
63784;SDS011;49927;48.146;11.420;2023-05-16T12:57:28;269.85;;;238.73;;
63784;SDS011;49927;48.146;11.420;2023-05-16T12:59:55;290.40;;;250.07;;
63784;SDS011;49927;48.146;11.420;2023-05-16T13:02:22;293.90;;;253.43;;
63784;SDS011;49927;48.146;11.420;2023-05-16T13:04:48;275.48;;;245.15;;
63784;SDS011;49927;48.146;11.420;2023-05-16T13:07:17;273.30;;;241.55;;
63784;SDS011;49927;48.146;11.420;2023-05-16T13:09:43;264.77;;;227.25;;
63784;SDS011;49927;48.146;11.420;2023-05-16T13:12:10;283.00;;;241.07;;
63784;SDS011;49927;48.146;11.420;2023-05-16T13:14:37;290.80;;;251.18;;
63784;SDS011;49927;48.146;11.420;2023-05-16T13:17:04;290.52;;;248.50;;
63784;SDS011;49927;48.146;11.420;2023-05-16T13:19:30;269.90;;;240.95;;
63784;SDS011;49927;48.146;11.420;2023-05-16T13:21:57;270.52;;;242.60;;
63784;SDS011;49927;48.146;11.420;2023-05-16T13:24:25;252.43;;;224.77;;
63784;SDS011;49927;48.146;11.420;2023-05-16T13:26:52;261.88;;;235.02;;
63784;SDS011;49927;48.146;11.420;2023-05-16T13:29:19;275.42;;;247.55;;
63784;SDS011;49927;48.146;11.420;2023-05-16T13:31:45;278.58;;;249.95;;
63784;SDS011;49927;48.146;11.420;2023-05-16T13:34:12;267.08;;;241.48;;
63784;SDS011;49927;48.146;11.420;2023-05-16T13:36:39;248.85;;;222.40;;
63784;SDS011;49927;48.146;11.420;2023-05-16T13:39:19;263.55;;;235.18;;
63784;SDS011;49927;48.146;11.420;2023-05-16T13:41:47;236.15;;;163.15;;
63784;SDS011;49927;48.146;11.420;2023-05-16T13:44:14;177.35;;;123.90;;
63784;SDS011;49927;48.146;11.420;2023-05-16T13:46:41;137.23;;;103.50;;